createdAt,value
2017-02-26T00:04:44.842Z,7.94
2017-02-26T00:09:41.520Z,8.10
2017-02-26T00:14:38.188Z,7.95
2017-02-26T00:19:34.384Z,7.98
2017-02-26T00:24:31.018Z,7.98
2017-02-26T00:29:27.545Z,8.12
2017-02-26T00:34:23.945Z,8.05
2017-02-26T00:39:21.449Z,8.01
2017-02-26T00:44:17.145Z,7.98
2017-02-26T00:49:13.645Z,8.01
2017-02-26T00:54:10.062Z,7.97
2017-02-26T00:59:06.439Z,7.94
2017-02-26T01:04:02.889Z,7.83
2017-02-26T01:08:59.904Z,7.91
2017-02-26T01:13:56.120Z,7.93
2017-02-26T01:18:53.186Z,7.82
2017-02-26T01:23:49.587Z,7.90
2017-02-26T01:28:46.016Z,7.94
2017-02-26T01:33:43.560Z,7.88
2017-02-26T01:38:39.938Z,7.90
2017-02-26T01:43:36.560Z,7.85
2017-02-26T01:48:34.135Z,7.79
2017-02-26T01:53:30.171Z,7.90
2017-02-26T01:58:26.695Z,7.83
2017-02-26T02:03:23.334Z,7.77
2017-02-26T02:08:19.824Z,7.76
2017-02-26T02:13:16.365Z,7.72
2017-02-26T02:18:12.856Z,7.67
2017-02-26T02:23:08.942Z,7.61
2017-02-26T02:28:05.293Z,7.66
2017-02-26T02:33:01.694Z,7.61
2017-02-26T02:37:58.835Z,7.61
2017-02-26T02:42:55.628Z,7.61
2017-02-26T02:47:52.190Z,7.57
2017-02-26T02:52:50.612Z,7.69
2017-02-26T02:57:46.798Z,7.66
2017-02-26T03:02:43.234Z,7.61
2017-02-26T03:07:39.752Z,7.63
2017-02-26T03:12:36.245Z,7.56
2017-02-26T03:17:32.577Z,7.53
2017-02-26T03:22:28.980Z,7.42
2017-02-26T03:27:25.852Z,7.53
2017-02-26T03:32:23.560Z,7.63
2017-02-26T03:37:20.444Z,7.60
2017-02-26T03:42:16.405Z,7.50
2017-02-26T03:47:13.072Z,7.56
2017-02-26T03:52:09.800Z,7.63
2017-02-26T03:57:06.166Z,7.60
2017-02-26T04:02:03.280Z,7.63
2017-02-26T04:07:00.979Z,7.58
2017-02-26T04:11:57.077Z,7.56
2017-02-26T04:16:53.541Z,7.56
2017-02-26T04:21:49.943Z,7.61
2017-02-26T04:26:46.640Z,7.63
2017-02-26T04:31:44.193Z,7.58
2017-02-26T04:36:40.236Z,7.67
2017-02-26T04:41:36.615Z,7.61
2017-02-26T04:46:33.407Z,7.58
2017-02-26T04:51:29.888Z,7.66
2017-02-26T04:56:27.235Z,7.60
2017-02-26T05:01:23.868Z,7.61
2017-02-26T05:06:21.227Z,7.66
2017-02-26T05:11:17.370Z,7.57
2017-02-26T05:16:14.710Z,7.56
2017-02-26T05:21:11.458Z,7.58
2017-02-26T05:26:09.618Z,7.63
2017-02-26T05:31:05.726Z,7.66
2017-02-26T05:36:02.306Z,7.75
2017-02-26T05:40:59.163Z,7.73
2017-02-26T05:45:56.341Z,7.72
2017-02-26T05:50:52.375Z,7.66
2017-02-26T05:55:49.672Z,7.76
2017-02-26T06:00:46.325Z,7.79
2017-02-26T06:05:43.489Z,7.72
2017-02-26T06:10:39.829Z,7.73
2017-02-26T06:15:35.961Z,7.58
2017-02-26T06:20:32.381Z,7.70
2017-02-26T06:25:29.260Z,7.61
2017-02-26T06:30:26.078Z,7.58
2017-02-26T06:35:22.644Z,7.57
2017-02-26T06:40:19.266Z,7.72
2017-02-26T06:45:17.025Z,7.69
2017-02-26T06:50:13.428Z,7.70
2017-02-26T06:55:09.835Z,7.76
2017-02-26T07:00:06.199Z,7.82
2017-02-26T07:05:02.693Z,7.82
2017-02-26T07:09:59.090Z,7.87
2017-02-26T07:14:56.419Z,7.88
2017-02-26T07:19:54.008Z,8.06
2017-02-26T07:24:50.421Z,8.08
2017-02-26T07:29:46.839Z,8.20
2017-02-26T07:34:43.493Z,8.28
2017-02-26T07:44:41.055Z,8.27
2017-02-26T07:49:38.986Z,8.37
2017-02-26T07:54:35.181Z,8.41
2017-02-26T07:59:32.315Z,8.42
2017-02-26T08:04:28.519Z,8.44
2017-02-26T08:09:25.254Z,8.36
2017-02-26T08:14:22.025Z,8.23
2017-02-26T08:19:18.499Z,8.33
2017-02-26T08:24:15.161Z,8.36
2017-02-26T08:29:11.562Z,8.52
2017-02-26T08:34:08.317Z,8.38
2017-02-26T08:39:06.008Z,8.45
2017-02-26T08:44:02.300Z,8.64
2017-02-26T08:48:58.911Z,8.85
2017-02-26T08:53:55.380Z,8.76
2017-02-26T08:58:51.800Z,8.81
2017-02-26T09:03:48.723Z,9.02
2017-02-26T09:08:45.752Z,9.06
2017-02-26T09:13:42.411Z,9.00
2017-02-26T09:18:39.559Z,8.89
2017-02-26T09:23:36.809Z,8.91
2017-02-26T09:28:33.432Z,8.91
2017-02-26T09:33:30.631Z,8.82
2017-02-26T09:38:26.877Z,8.71
2017-02-26T09:43:23.741Z,8.74
2017-02-26T09:48:20.251Z,8.82
2017-02-26T09:53:16.837Z,8.88
2017-02-26T09:58:13.595Z,8.97
2017-02-26T10:03:09.914Z,8.79
2017-02-26T10:08:07.084Z,8.84
2017-02-26T10:13:04.664Z,8.74
2017-02-26T10:18:00.544Z,8.60
2017-02-26T10:22:59.079Z,9.16
2017-02-26T10:27:58.999Z,9.11
2017-02-26T10:32:55.120Z,9.11
2017-02-26T10:37:51.344Z,9.26
2017-02-26T10:42:47.674Z,9.19
2017-02-26T10:47:44.698Z,8.94
2017-02-26T10:52:41.158Z,8.82
2017-02-26T10:57:37.618Z,8.76
2017-02-26T11:02:34.263Z,8.85
2017-02-26T11:07:31.093Z,8.88
2017-02-26T11:12:27.615Z,8.70
2017-02-26T11:17:24.046Z,8.78
2017-02-26T11:22:20.336Z,8.70
2017-02-26T11:27:17.055Z,8.73
2017-02-26T11:32:13.586Z,8.91
2017-02-26T11:37:10.363Z,9.02
2017-02-26T11:42:06.521Z,8.97
2017-02-26T11:47:03.986Z,9.00
2017-02-26T11:52:00.733Z,8.84
2017-02-26T12:01:59.792Z,8.78
2017-02-26T12:06:58.919Z,8.84
2017-02-26T12:11:55.455Z,8.82
2017-02-26T12:16:51.606Z,8.81
2017-02-26T12:21:48.106Z,8.87
2017-02-26T12:26:47.193Z,9.04
2017-02-26T12:31:43.152Z,9.04
2017-02-26T12:36:39.629Z,9.08
2017-02-26T12:41:38.489Z,9.14
2017-02-26T12:46:34.316Z,9.22
2017-02-26T12:51:32.000Z,9.11
2017-02-26T12:56:28.165Z,9.03
2017-02-26T13:01:26.715Z,9.10
2017-02-26T13:06:23.707Z,9.10
2017-02-26T13:11:21.375Z,9.11
2017-02-26T13:16:17.831Z,9.32
2017-02-26T13:21:14.667Z,9.48
2017-02-26T13:26:11.269Z,9.51
2017-02-26T13:31:08.945Z,9.82
2017-02-26T13:36:05.420Z,9.74
2017-02-26T13:41:01.835Z,9.72
2017-02-26T13:45:58.083Z,9.94
2017-02-26T13:50:56.196Z,9.82
2017-02-26T13:55:53.698Z,9.79
2017-02-26T14:00:49.770Z,9.79
2017-02-26T14:05:46.830Z,9.82
2017-02-26T14:10:43.241Z,9.74
2017-02-26T14:15:40.521Z,9.73
2017-02-26T14:20:37.524Z,9.77
2017-02-26T14:25:34.017Z,9.76
2017-02-26T14:30:30.699Z,9.91
2017-02-26T14:35:27.458Z,10.19
2017-02-26T14:40:27.008Z,10.40
2017-02-26T14:45:23.045Z,10.54
2017-02-26T14:50:19.756Z,10.74
2017-02-26T14:55:16.692Z,10.82
2017-02-26T15:00:13.462Z,10.96
2017-02-26T15:05:11.372Z,11.02
2017-02-26T15:10:07.615Z,10.87
2017-02-26T15:15:03.867Z,10.92
2017-02-26T15:20:03.635Z,10.86
2017-02-26T15:24:59.541Z,10.86
2017-02-26T15:29:56.270Z,10.79
2017-02-26T15:34:53.862Z,10.76
2017-02-26T15:39:50.970Z,10.78
2017-02-26T15:44:47.662Z,10.64
2017-02-26T15:49:44.257Z,10.56
2017-02-26T15:54:41.133Z,10.57
2017-02-26T15:59:37.871Z,10.48
2017-02-26T16:04:34.295Z,10.34
2017-02-26T16:09:31.723Z,10.30
2017-02-26T16:14:28.060Z,9.94
2017-02-26T16:19:24.522Z,9.77
2017-02-26T16:24:21.160Z,9.83
2017-02-26T16:29:17.824Z,9.83
2017-02-26T16:34:14.477Z,9.92
2017-02-26T16:39:10.975Z,9.95
2017-02-26T16:44:08.869Z,9.99
2017-02-26T16:49:05.203Z,9.95
2017-02-26T16:54:01.781Z,9.77
2017-02-26T16:58:58.177Z,9.72
2017-02-26T17:03:54.600Z,9.74
2017-02-26T17:08:50.980Z,9.72
2017-02-26T17:13:47.173Z,9.73
2017-02-26T17:18:43.171Z,9.69
2017-02-26T17:23:39.967Z,9.62
2017-02-26T17:28:36.426Z,9.54
2017-02-26T17:33:32.958Z,9.56
2017-02-26T17:38:29.715Z,9.54
2017-02-26T17:43:26.220Z,9.55
2017-02-26T17:48:23.513Z,9.65
2017-02-26T17:53:19.762Z,9.55
2017-02-26T17:58:16.200Z,9.47
2017-02-26T18:03:13.015Z,9.58
2017-02-26T18:08:09.773Z,9.61
2017-02-26T18:13:06.210Z,9.58
2017-02-26T18:18:02.493Z,9.54
2017-02-26T18:22:58.982Z,9.68
2017-02-26T18:27:55.901Z,9.69
2017-02-26T18:32:52.945Z,9.73
2017-02-26T18:37:49.341Z,9.83
2017-02-26T18:42:45.985Z,9.79
2017-02-26T18:47:42.737Z,9.84
2017-02-26T18:52:39.425Z,9.87
2017-02-26T18:57:35.984Z,10.12
2017-02-26T19:02:32.528Z,10.20
2017-02-26T19:07:29.417Z,10.30
2017-02-26T19:12:26.328Z,10.30
2017-02-26T19:17:23.291Z,10.22
2017-02-26T19:22:20.426Z,10.40
2017-02-26T19:27:16.904Z,10.31
2017-02-26T19:32:13.162Z,10.37
2017-02-26T19:37:10.146Z,10.40
2017-02-26T19:42:06.965Z,10.53
2017-02-26T19:47:03.549Z,10.49
2017-02-26T19:52:03.431Z,10.53
2017-02-26T19:56:59.342Z,10.56
2017-02-26T20:01:57.790Z,10.54
2017-02-26T20:06:54.019Z,10.61
2017-02-26T20:11:50.452Z,10.51
2017-02-26T20:16:47.130Z,10.61
2017-02-26T20:21:43.580Z,10.54
2017-02-26T20:26:40.167Z,10.68
2017-02-26T20:31:36.561Z,10.63
2017-02-26T20:36:32.929Z,10.60
2017-02-26T20:41:29.573Z,10.61
2017-02-26T20:46:25.910Z,10.64
2017-02-26T20:51:22.963Z,10.63
2017-02-26T20:56:19.369Z,10.53
2017-02-26T21:01:16.155Z,10.49
2017-02-26T21:06:12.814Z,10.49
2017-02-26T21:11:09.522Z,10.53
2017-02-26T21:16:05.966Z,10.53
2017-02-26T21:21:03.403Z,10.46
2017-02-26T21:25:59.691Z,10.48
2017-02-26T21:30:56.156Z,10.57
2017-02-26T21:35:52.931Z,10.64
2017-02-26T21:40:49.273Z,10.60
2017-02-26T21:45:45.781Z,10.59
2017-02-26T21:50:41.917Z,10.57
2017-02-26T21:55:38.501Z,10.51
2017-02-26T22:00:35.124Z,10.51
2017-02-26T22:05:31.646Z,10.57
2017-02-26T22:10:28.285Z,10.57
2017-02-26T22:15:24.748Z,10.61
2017-02-26T22:20:21.285Z,10.68
2017-02-26T22:25:18.151Z,10.54
2017-02-26T22:30:15.215Z,10.57
2017-02-26T22:35:11.787Z,10.76
2017-02-26T22:40:09.105Z,10.79
2017-02-26T22:45:06.049Z,10.75
2017-02-26T22:50:04.175Z,10.69
2017-02-26T22:55:00.427Z,10.76
2017-02-26T22:59:57.360Z,10.57
2017-02-26T23:04:54.045Z,10.61
2017-02-26T23:09:50.172Z,10.64
2017-02-26T23:14:46.913Z,10.61
2017-02-26T23:19:46.248Z,10.59
2017-02-26T23:24:42.629Z,10.63
2017-02-26T23:29:39.317Z,10.53
2017-02-26T23:34:35.783Z,10.31
2017-02-26T23:39:32.068Z,10.25
2017-02-26T23:44:29.310Z,10.35
2017-02-26T23:49:25.258Z,10.41
2017-02-26T23:54:22.070Z,10.53
2017-02-26T23:59:18.365Z,10.56
